Ryeland, Pennsylvania
Current Conditions -  °F | °C
As of 3:54 AM on Friday 21 Nov 2014 (Local Time) from KRDG Reporting Station
Clear Clear  
Wind Chill: 15°   Ceiling: Unl
Heat Index: 27°   Visibility: 10mi
Dew Point:   Wind: 15mph
Humidity: 45%   Direction: 280°W
Pressure: 30.15"   Gusts: NA
Location:  40.3905°N, 76.2083°W
Report Text: KRDG 210854Z AUTO 28013KT 10SM CLR M03/M13 A3015 RMK AO2 SLP219 T10281133 52021
Loading
Personal Weather Stations






























Interactive Weather Map New forecast layout! Learn more

10-Day Weather Forecast

Advertisements
Track Severe Weather on mobile